sensor_id;sensor_type;location;lat;lon;timestamp;temperature;humidity
24518;DHT22;12678;51.336;12.406;2023-05-23T00:00:58;19.20;99.90
24518;DHT22;12678;51.336;12.406;2023-05-23T00:03:25;19.10;99.90
24518;DHT22;12678;51.336;12.406;2023-05-23T00:05:51;19.10;99.90
24518;DHT22;12678;51.336;12.406;2023-05-23T00:08:18;19.10;99.90
24518;DHT22;12678;51.336;12.406;2023-05-23T00:10:44;19.00;99.90
24518;DHT22;12678;51.336;12.406;2023-05-23T00:13:11;19.00;99.90
24518;DHT22;12678;51.336;12.406;2023-05-23T00:15:41;19.10;99.90
24518;DHT22;12678;51.336;12.406;2023-05-23T00:18:08;19.00;99.90
24518;DHT22;12678;51.336;12.406;2023-05-23T00:20:36;19.10;99.90
24518;DHT22;12678;51.336;12.406;2023-05-23T00:23:03;19.10;99.90
24518;DHT22;12678;51.336;12.406;2023-05-23T00:25:29;19.10;99.90
24518;DHT22;12678;51.336;12.406;2023-05-23T00:28:02;19.10;99.90
24518;DHT22;12678;51.336;12.406;2023-05-23T00:30:30;19.10;99.90
24518;DHT22;12678;51.336;12.406;2023-05-23T00:32:56;19.10;99.90
24518;DHT22;12678;51.336;12.406;2023-05-23T00:35:23;19.00;99.90
24518;DHT22;12678;51.336;12.406;2023-05-23T00:37:51;19.00;99.90
24518;DHT22;12678;51.336;12.406;2023-05-23T00:40:20;18.90;99.90
24518;DHT22;12678;51.336;12.406;2023-05-23T00:42:47;18.90;99.90
24518;DHT22;12678;51.336;12.406;2023-05-23T00:45:13;18.90;99.90
24518;DHT22;12678;51.336;12.406;2023-05-23T00:47:40;18.90;99.90
24518;DHT22;12678;51.336;12.406;2023-05-23T00:50:08;18.90;99.90
24518;DHT22;12678;51.336;12.406;2023-05-23T00:52:37;18.80;99.90
24518;DHT22;12678;51.336;12.406;2023-05-23T00:55:04;18.80;99.90
24518;DHT22;12678;51.336;12.406;2023-05-23T00:57:30;18.90;99.90
24518;DHT22;12678;51.336;12.406;2023-05-23T00:59:59;18.80;99.90
24518;DHT22;12678;51.336;12.406;2023-05-23T01:02:25;18.80;99.90
24518;DHT22;12678;51.336;12.406;2023-05-23T01:04:54;18.80;99.90
24518;DHT22;12678;51.336;12.406;2023-05-23T01:07:20;18.70;99.90
24518;DHT22;12678;51.336;12.406;2023-05-23T01:09:46;18.70;99.90
24518;DHT22;12678;51.336;12.406;2023-05-23T01:12:36;18.60;99.90
24518;DHT22;12678;51.336;12.406;2023-05-23T01:15:07;18.60;99.90
24518;DHT22;12678;51.336;12.406;2023-05-23T01:20:11;18.60;99.90
24518;DHT22;12678;51.336;12.406;2023-05-23T01:26:02;18.50;99.90
24518;DHT22;12678;51.336;12.406;2023-05-23T01:28:36;18.40;99.90
24518;DHT22;12678;51.336;12.406;2023-05-23T01:31:04;18.40;99.90
24518;DHT22;12678;51.336;12.406;2023-05-23T01:33:31;18.30;99.90
24518;DHT22;12678;51.336;12.406;2023-05-23T01:36:00;18.40;99.90
24518;DHT22;12678;51.336;12.406;2023-05-23T01:38:27;18.50;99.90
24518;DHT22;12678;51.336;12.406;2023-05-23T01:40:53;18.50;99.90
24518;DHT22;12678;51.336;12.406;2023-05-23T01:43:19;18.60;99.90
24518;DHT22;12678;51.336;12.406;2023-05-23T01:45:46;18.50;99.90
24518;DHT22;12678;51.336;12.406;2023-05-23T01:48:14;18.50;99.90
24518;DHT22;12678;51.336;12.406;2023-05-23T01:50:41;18.40;99.90
24518;DHT22;12678;51.336;12.406;2023-05-23T01:53:12;18.40;99.90
24518;DHT22;12678;51.336;12.406;2023-05-23T01:55:40;18.30;99.90
24518;DHT22;12678;51.336;12.406;2023-05-23T01:58:06;18.30;99.90
24518;DHT22;12678;51.336;12.406;2023-05-23T02:00:33;18.30;99.90
24518;DHT22;12678;51.336;12.406;2023-05-23T02:02:59;18.30;99.90
24518;DHT22;12678;51.336;12.406;2023-05-23T02:05:25;18.40;99.90
24518;DHT22;12678;51.336;12.406;2023-05-23T02:07:51;18.40;99.90
24518;DHT22;12678;51.336;12.406;2023-05-23T02:10:18;18.30;99.90
24518;DHT22;12678;51.336;12.406;2023-05-23T02:12:44;18.30;99.90
24518;DHT22;12678;51.336;12.406;2023-05-23T02:15:11;18.30;99.90
24518;DHT22;12678;51.336;12.406;2023-05-23T02:17:37;18.30;99.90
24518;DHT22;12678;51.336;12.406;2023-05-23T02:20:06;18.30;99.90
24518;DHT22;12678;51.336;12.406;2023-05-23T02:22:32;18.30;99.90
24518;DHT22;12678;51.336;12.406;2023-05-23T02:24:59;18.20;99.90
24518;DHT22;12678;51.336;12.406;2023-05-23T02:27:25;18.30;99.90
24518;DHT22;12678;51.336;12.406;2023-05-23T02:29:51;18.30;99.90
24518;DHT22;12678;51.336;12.406;2023-05-23T02:32:18;18.20;99.90
24518;DHT22;12678;51.336;12.406;2023-05-23T02:34:44;18.20;99.90
24518;DHT22;12678;51.336;12.406;2023-05-23T02:37:15;18.20;99.90
24518;DHT22;12678;51.336;12.406;2023-05-23T02:39:41;18.20;99.90
24518;DHT22;12678;51.336;12.406;2023-05-23T02:42:07;18.30;99.90
24518;DHT22;12678;51.336;12.406;2023-05-23T02:44:32;18.30;99.90
24518;DHT22;12678;51.336;12.406;2023-05-23T02:46:58;18.40;99.90
24518;DHT22;12678;51.336;12.406;2023-05-23T02:49:24;18.40;99.90
24518;DHT22;12678;51.336;12.406;2023-05-23T02:51:50;18.40;99.90
24518;DHT22;12678;51.336;12.406;2023-05-23T02:54:15;18.40;99.90
24518;DHT22;12678;51.336;12.406;2023-05-23T02:56:43;18.40;99.90
24518;DHT22;12678;51.336;12.406;2023-05-23T02:59:09;18.50;99.90
24518;DHT22;12678;51.336;12.406;2023-05-23T03:01:36;18.40;99.90
24518;DHT22;12678;51.336;12.406;2023-05-23T03:04:02;18.50;99.90
24518;DHT22;12678;51.336;12.406;2023-05-23T03:06:28;18.50;99.90
24518;DHT22;12678;51.336;12.406;2023-05-23T03:08:56;18.50;99.90
24518;DHT22;12678;51.336;12.406;2023-05-23T03:11:22;18.50;99.90
24518;DHT22;12678;51.336;12.406;2023-05-23T03:13:48;18.50;99.90
24518;DHT22;12678;51.336;12.406;2023-05-23T03:16:14;18.40;99.90
24518;DHT22;12678;51.336;12.406;2023-05-23T03:18:39;18.30;99.90
24518;DHT22;12678;51.336;12.406;2023-05-23T03:21:06;18.40;99.90
24518;DHT22;12678;51.336;12.406;2023-05-23T03:23:33;18.40;99.90
24518;DHT22;12678;51.336;12.406;2023-05-23T03:25:58;18.40;99.90
24518;DHT22;12678;51.336;12.406;2023-05-23T03:28:24;18.30;99.90
24518;DHT22;12678;51.336;12.406;2023-05-23T03:30:50;18.40;99.90
24518;DHT22;12678;51.336;12.406;2023-05-23T03:33:16;18.40;99.90
24518;DHT22;12678;51.336;12.406;2023-05-23T03:35:42;18.40;99.90
24518;DHT22;12678;51.336;12.406;2023-05-23T03:38:09;18.30;99.90
24518;DHT22;12678;51.336;12.406;2023-05-23T03:40:35;18.40;99.90
24518;DHT22;12678;51.336;12.406;2023-05-23T03:43:02;18.40;99.90
24518;DHT22;12678;51.336;12.406;2023-05-23T03:45:32;18.30;99.90
24518;DHT22;12678;51.336;12.406;2023-05-23T03:47:59;18.30;99.90
24518;DHT22;12678;51.336;12.406;2023-05-23T03:50:25;18.30;99.90
24518;DHT22;12678;51.336;12.406;2023-05-23T03:52:52;18.30;99.90
24518;DHT22;12678;51.336;12.406;2023-05-23T03:55:17;18.30;99.90
24518;DHT22;12678;51.336;12.406;2023-05-23T03:57:47;18.30;99.90
24518;DHT22;12678;51.336;12.406;2023-05-23T04:00:14;18.30;99.90
24518;DHT22;12678;51.336;12.406;2023-05-23T04:02:39;18.30;99.90
24518;DHT22;12678;51.336;12.406;2023-05-23T04:05:05;18.30;99.90
24518;DHT22;12678;51.336;12.406;2023-05-23T04:07:32;18.40;99.90
24518;DHT22;12678;51.336;12.406;2023-05-23T04:10:01;18.40;99.90
24518;DHT22;12678;51.336;12.406;2023-05-23T04:12:27;18.40;99.90
24518;DHT22;12678;51.336;12.406;2023-05-23T04:14:55;18.50;99.90
24518;DHT22;12678;51.336;12.406;2023-05-23T04:17:22;18.50;99.90
24518;DHT22;12678;51.336;12.406;2023-05-23T04:19:49;18.50;99.90
24518;DHT22;12678;51.336;12.406;2023-05-23T04:22:15;18.40;99.90
24518;DHT22;12678;51.336;12.406;2023-05-23T04:24:40;18.40;99.90
24518;DHT22;12678;51.336;12.406;2023-05-23T04:27:07;18.40;99.90
24518;DHT22;12678;51.336;12.406;2023-05-23T04:29:36;18.30;99.90
24518;DHT22;12678;51.336;12.406;2023-05-23T04:32:02;18.40;99.90
24518;DHT22;12678;51.336;12.406;2023-05-23T04:34:28;18.40;99.90
24518;DHT22;12678;51.336;12.406;2023-05-23T04:36:55;18.30;99.90
24518;DHT22;12678;51.336;12.406;2023-05-23T04:39:20;18.40;99.90
24518;DHT22;12678;51.336;12.406;2023-05-23T04:41:46;18.40;99.90
24518;DHT22;12678;51.336;12.406;2023-05-23T04:44:12;18.30;99.90
24518;DHT22;12678;51.336;12.406;2023-05-23T04:46:39;18.40;99.90
24518;DHT22;12678;51.336;12.406;2023-05-23T04:49:07;18.30;99.90
24518;DHT22;12678;51.336;12.406;2023-05-23T04:51:33;18.30;99.90
24518;DHT22;12678;51.336;12.406;2023-05-23T04:54:00;18.30;99.90
24518;DHT22;12678;51.336;12.406;2023-05-23T04:56:26;18.30;99.90
24518;DHT22;12678;51.336;12.406;2023-05-23T04:58:53;18.30;99.90
24518;DHT22;12678;51.336;12.406;2023-05-23T05:01:18;18.30;99.90
24518;DHT22;12678;51.336;12.406;2023-05-23T05:03:44;18.40;99.90
24518;DHT22;12678;51.336;12.406;2023-05-23T05:06:10;18.40;99.90
24518;DHT22;12678;51.336;12.406;2023-05-23T05:08:36;18.50;99.90
24518;DHT22;12678;51.336;12.406;2023-05-23T05:11:02;18.50;99.90
24518;DHT22;12678;51.336;12.406;2023-05-23T05:13:27;18.60;99.90
24518;DHT22;12678;51.336;12.406;2023-05-23T05:15:53;18.70;99.90
24518;DHT22;12678;51.336;12.406;2023-05-23T05:18:19;19.10;99.90
24518;DHT22;12678;51.336;12.406;2023-05-23T05:20:44;19.70;99.90
24518;DHT22;12678;51.336;12.406;2023-05-23T05:23:10;20.10;99.90
24518;DHT22;12678;51.336;12.406;2023-05-23T05:25:36;20.70;99.90
24518;DHT22;12678;51.336;12.406;2023-05-23T05:28:02;21.30;99.90
24518;DHT22;12678;51.336;12.406;2023-05-23T05:30:31;21.30;99.90
24518;DHT22;12678;51.336;12.406;2023-05-23T05:33:03;20.90;99.90
24518;DHT22;12678;51.336;12.406;2023-05-23T05:35:36;20.70;99.90
24518;DHT22;12678;51.336;12.406;2023-05-23T05:38:02;20.30;99.90
24518;DHT22;12678;51.336;12.406;2023-05-23T05:40:31;20.10;99.90
24518;DHT22;12678;51.336;12.406;2023-05-23T05:42:57;19.90;99.90
24518;DHT22;12678;51.336;12.406;2023-05-23T05:45:23;19.80;99.90
24518;DHT22;12678;51.336;12.406;2023-05-23T05:47:48;19.60;99.90
24518;DHT22;12678;51.336;12.406;2023-05-23T05:50:15;19.50;99.90
24518;DHT22;12678;51.336;12.406;2023-05-23T05:52:41;19.40;99.90
24518;DHT22;12678;51.336;12.406;2023-05-23T05:55:10;19.20;99.90
24518;DHT22;12678;51.336;12.406;2023-05-23T05:57:36;19.10;99.90
24518;DHT22;12678;51.336;12.406;2023-05-23T06:00:05;19.00;99.90
24518;DHT22;12678;51.336;12.406;2023-05-23T06:02:37;19.00;99.90
24518;DHT22;12678;51.336;12.406;2023-05-23T06:05:03;18.90;99.90
24518;DHT22;12678;51.336;12.406;2023-05-23T06:07:30;18.90;99.90
24518;DHT22;12678;51.336;12.406;2023-05-23T06:09:56;18.90;99.90
24518;DHT22;12678;51.336;12.406;2023-05-23T06:12:22;18.90;99.90
24518;DHT22;12678;51.336;12.406;2023-05-23T06:14:47;18.90;99.90
24518;DHT22;12678;51.336;12.406;2023-05-23T06:17:13;18.90;99.90
24518;DHT22;12678;51.336;12.406;2023-05-23T06:19:39;18.90;99.90
24518;DHT22;12678;51.336;12.406;2023-05-23T06:22:05;18.90;99.90
24518;DHT22;12678;51.336;12.406;2023-05-23T06:24:31;19.00;99.90
24518;DHT22;12678;51.336;12.406;2023-05-23T06:26:57;19.00;99.90
24518;DHT22;12678;51.336;12.406;2023-05-23T06:29:23;18.90;99.90
24518;DHT22;12678;51.336;12.406;2023-05-23T06:31:49;18.80;99.90
24518;DHT22;12678;51.336;12.406;2023-05-23T06:34:19;18.80;99.90
24518;DHT22;12678;51.336;12.406;2023-05-23T06:37:06;18.70;99.90
24518;DHT22;12678;51.336;12.406;2023-05-23T06:39:32;18.70;99.90
24518;DHT22;12678;51.336;12.406;2023-05-23T06:41:58;18.70;99.90
24518;DHT22;12678;51.336;12.406;2023-05-23T06:44:24;18.70;99.90
24518;DHT22;12678;51.336;12.406;2023-05-23T06:46:49;18.60;99.90
24518;DHT22;12678;51.336;12.406;2023-05-23T06:49:15;18.60;99.90
24518;DHT22;12678;51.336;12.406;2023-05-23T06:51:40;18.50;99.90
24518;DHT22;12678;51.336;12.406;2023-05-23T06:54:06;18.30;99.90
24518;DHT22;12678;51.336;12.406;2023-05-23T06:56:32;18.10;99.90
24518;DHT22;12678;51.336;12.406;2023-05-23T06:58:58;18.00;99.90
24518;DHT22;12678;51.336;12.406;2023-05-23T07:01:25;17.90;99.90
24518;DHT22;12678;51.336;12.406;2023-05-23T07:03:50;17.90;99.90
24518;DHT22;12678;51.336;12.406;2023-05-23T07:06:16;17.90;99.90
24518;DHT22;12678;51.336;12.406;2023-05-23T07:08:42;17.80;99.90
24518;DHT22;12678;51.336;12.406;2023-05-23T07:11:08;17.80;99.90
24518;DHT22;12678;51.336;12.406;2023-05-23T07:13:34;17.70;99.90
24518;DHT22;12678;51.336;12.406;2023-05-23T07:16:00;17.70;99.90
24518;DHT22;12678;51.336;12.406;2023-05-23T07:18:25;17.60;99.90
24518;DHT22;12678;51.336;12.406;2023-05-23T07:20:51;17.60;99.90
24518;DHT22;12678;51.336;12.406;2023-05-23T07:23:17;17.60;99.90
24518;DHT22;12678;51.336;12.406;2023-05-23T07:25:42;17.70;99.90
24518;DHT22;12678;51.336;12.406;2023-05-23T07:28:09;17.70;99.90
24518;DHT22;12678;51.336;12.406;2023-05-23T07:30:35;17.80;99.90
24518;DHT22;12678;51.336;12.406;2023-05-23T07:33:00;17.90;99.90
24518;DHT22;12678;51.336;12.406;2023-05-23T07:35:26;17.90;99.90
24518;DHT22;12678;51.336;12.406;2023-05-23T07:37:52;17.90;99.90
24518;DHT22;12678;51.336;12.406;2023-05-23T07:40:19;17.90;99.90
24518;DHT22;12678;51.336;12.406;2023-05-23T07:42:45;18.10;99.90
24518;DHT22;12678;51.336;12.406;2023-05-23T07:45:11;18.20;99.90
24518;DHT22;12678;51.336;12.406;2023-05-23T07:47:36;18.20;99.90
24518;DHT22;12678;51.336;12.406;2023-05-23T07:50:02;18.20;99.90
24518;DHT22;12678;51.336;12.406;2023-05-23T07:52:28;18.20;99.90
24518;DHT22;12678;51.336;12.406;2023-05-23T07:54:55;18.20;99.90
24518;DHT22;12678;51.336;12.406;2023-05-23T07:57:22;18.20;99.90
24518;DHT22;12678;51.336;12.406;2023-05-23T07:59:49;18.20;99.90
24518;DHT22;12678;51.336;12.406;2023-05-23T08:02:15;18.10;99.90
24518;DHT22;12678;51.336;12.406;2023-05-23T08:04:41;18.10;99.90
24518;DHT22;12678;51.336;12.406;2023-05-23T08:07:07;18.10;99.90
24518;DHT22;12678;51.336;12.406;2023-05-23T08:09:34;18.10;99.90
24518;DHT22;12678;51.336;12.406;2023-05-23T08:12:00;18.00;99.90
24518;DHT22;12678;51.336;12.406;2023-05-23T08:14:26;18.00;99.90
24518;DHT22;12678;51.336;12.406;2023-05-23T08:16:51;18.10;99.90
24518;DHT22;12678;51.336;12.406;2023-05-23T08:19:17;18.20;99.90
24518;DHT22;12678;51.336;12.406;2023-05-23T08:21:44;18.30;99.90
24518;DHT22;12678;51.336;12.406;2023-05-23T08:24:09;18.30;99.90
24518;DHT22;12678;51.336;12.406;2023-05-23T08:26:37;18.30;99.90
24518;DHT22;12678;51.336;12.406;2023-05-23T08:29:04;18.40;99.90
24518;DHT22;12678;51.336;12.406;2023-05-23T08:31:31;18.30;99.90
24518;DHT22;12678;51.336;12.406;2023-05-23T08:33:58;18.30;99.90
24518;DHT22;12678;51.336;12.406;2023-05-23T08:36:24;18.30;99.90
24518;DHT22;12678;51.336;12.406;2023-05-23T08:38:50;18.20;99.90
24518;DHT22;12678;51.336;12.406;2023-05-23T08:41:23;18.10;99.90
24518;DHT22;12678;51.336;12.406;2023-05-23T08:43:49;18.20;99.90
24518;DHT22;12678;51.336;12.406;2023-05-23T08:46:15;18.20;99.90
24518;DHT22;12678;51.336;12.406;2023-05-23T08:48:42;18.30;99.90
24518;DHT22;12678;51.336;12.406;2023-05-23T08:51:13;18.40;99.90
24518;DHT22;12678;51.336;12.406;2023-05-23T08:53:42;18.50;99.90
24518;DHT22;12678;51.336;12.406;2023-05-23T08:56:12;18.60;99.90
24518;DHT22;12678;51.336;12.406;2023-05-23T08:58:38;18.70;99.90
24518;DHT22;12678;51.336;12.406;2023-05-23T09:01:09;18.80;99.90
24518;DHT22;12678;51.336;12.406;2023-05-23T09:03:36;18.90;99.90
24518;DHT22;12678;51.336;12.406;2023-05-23T09:06:06;19.00;99.90
24518;DHT22;12678;51.336;12.406;2023-05-23T09:08:32;19.10;99.90
24518;DHT22;12678;51.336;12.406;2023-05-23T09:10:58;19.30;99.90
24518;DHT22;12678;51.336;12.406;2023-05-23T09:13:28;19.30;99.90
24518;DHT22;12678;51.336;12.406;2023-05-23T09:18:36;19.50;99.90
24518;DHT22;12678;51.336;12.406;2023-05-23T09:21:02;19.50;99.90
24518;DHT22;12678;51.336;12.406;2023-05-23T09:23:32;19.60;99.90
24518;DHT22;12678;51.336;12.406;2023-05-23T09:26:24;19.50;99.90
24518;DHT22;12678;51.336;12.406;2023-05-23T09:28:50;19.60;99.90
24518;DHT22;12678;51.336;12.406;2023-05-23T09:31:15;19.50;99.90
24518;DHT22;12678;51.336;12.406;2023-05-23T09:33:44;19.40;99.90
24518;DHT22;12678;51.336;12.406;2023-05-23T09:36:11;19.40;99.90
24518;DHT22;12678;51.336;12.406;2023-05-23T09:38:42;19.30;99.90
24518;DHT22;12678;51.336;12.406;2023-05-23T09:41:08;19.20;99.90
24518;DHT22;12678;51.336;12.406;2023-05-23T09:43:48;19.30;99.90
24518;DHT22;12678;51.336;12.406;2023-05-23T09:46:14;19.10;99.90
24518;DHT22;12678;51.336;12.406;2023-05-23T09:48:44;19.00;99.90
24518;DHT22;12678;51.336;12.406;2023-05-23T09:51:10;19.00;99.90
24518;DHT22;12678;51.336;12.406;2023-05-23T09:53:36;18.90;99.90
24518;DHT22;12678;51.336;12.406;2023-05-23T09:56:03;18.90;99.90
24518;DHT22;12678;51.336;12.406;2023-05-23T09:58:29;18.80;99.90
24518;DHT22;12678;51.336;12.406;2023-05-23T10:00:56;18.70;99.90
24518;DHT22;12678;51.336;12.406;2023-05-23T10:06:12;18.60;99.90
24518;DHT22;12678;51.336;12.406;2023-05-23T10:08:45;18.50;99.90
24518;DHT22;12678;51.336;12.406;2023-05-23T10:13:45;18.50;99.90
24518;DHT22;12678;51.336;12.406;2023-05-23T10:16:22;18.40;99.90
24518;DHT22;12678;51.336;12.406;2023-05-23T10:18:57;18.40;99.90
24518;DHT22;12678;51.336;12.406;2023-05-23T10:21:29;18.30;99.90
24518;DHT22;12678;51.336;12.406;2023-05-23T10:23:57;18.30;99.90
24518;DHT22;12678;51.336;12.406;2023-05-23T10:26:23;18.30;99.90
24518;DHT22;12678;51.336;12.406;2023-05-23T10:28:49;18.20;99.90
24518;DHT22;12678;51.336;12.406;2023-05-23T10:31:16;18.30;99.90
24518;DHT22;12678;51.336;12.406;2023-05-23T10:33:48;18.30;99.90
24518;DHT22;12678;51.336;12.406;2023-05-23T10:36:36;18.20;99.90
24518;DHT22;12678;51.336;12.406;2023-05-23T10:39:14;18.20;99.90
24518;DHT22;12678;51.336;12.406;2023-05-23T10:41:46;18.20;99.90
24518;DHT22;12678;51.336;12.406;2023-05-23T10:44:27;18.20;99.90
24518;DHT22;12678;51.336;12.406;2023-05-23T10:46:55;18.10;99.90
24518;DHT22;12678;51.336;12.406;2023-05-23T10:49:44;18.10;99.90
24518;DHT22;12678;51.336;12.406;2023-05-23T10:52:15;18.10;99.90
24518;DHT22;12678;51.336;12.406;2023-05-23T10:54:43;18.10;99.90
24518;DHT22;12678;51.336;12.406;2023-05-23T10:57:10;18.10;99.90
24518;DHT22;12678;51.336;12.406;2023-05-23T10:59:39;18.00;99.90
24518;DHT22;12678;51.336;12.406;2023-05-23T11:02:14;17.90;99.90
24518;DHT22;12678;51.336;12.406;2023-05-23T11:04:40;17.90;99.90
24518;DHT22;12678;51.336;12.406;2023-05-23T11:07:32;17.80;99.90
24518;DHT22;12678;51.336;12.406;2023-05-23T11:10:11;17.80;99.90
24518;DHT22;12678;51.336;12.406;2023-05-23T11:12:40;17.80;99.90
24518;DHT22;12678;51.336;12.406;2023-05-23T11:17:50;17.90;99.90
24518;DHT22;12678;51.336;12.406;2023-05-23T11:20:18;18.00;99.90
24518;DHT22;12678;51.336;12.406;2023-05-23T11:22:58;18.20;99.90
24518;DHT22;12678;51.336;12.406;2023-05-23T11:25:45;18.20;99.90
24518;DHT22;12678;51.336;12.406;2023-05-23T11:28:12;18.40;99.90
24518;DHT22;12678;51.336;12.406;2023-05-23T11:30:39;18.40;99.90
24518;DHT22;12678;51.336;12.406;2023-05-23T11:33:09;18.40;99.90
24518;DHT22;12678;51.336;12.406;2023-05-23T11:35:41;18.40;99.90
24518;DHT22;12678;51.336;12.406;2023-05-23T11:38:08;18.40;99.90
24518;DHT22;12678;51.336;12.406;2023-05-23T11:40:35;18.40;99.90
24518;DHT22;12678;51.336;12.406;2023-05-23T11:43:03;18.30;99.90
24518;DHT22;12678;51.336;12.406;2023-05-23T11:45:30;18.10;99.90
24518;DHT22;12678;51.336;12.406;2023-05-23T11:48:06;18.10;99.90
24518;DHT22;12678;51.336;12.406;2023-05-23T11:50:33;17.90;99.90
24518;DHT22;12678;51.336;12.406;2023-05-23T11:52:59;17.90;99.90
24518;DHT22;12678;51.336;12.406;2023-05-23T11:55:25;17.80;99.90
24518;DHT22;12678;51.336;12.406;2023-05-23T11:57:50;17.80;99.90
24518;DHT22;12678;51.336;12.406;2023-05-23T12:00:17;17.90;99.90
24518;DHT22;12678;51.336;12.406;2023-05-23T12:02:44;17.90;99.90
24518;DHT22;12678;51.336;12.406;2023-05-23T12:05:13;17.90;99.90
24518;DHT22;12678;51.336;12.406;2023-05-23T12:07:46;17.90;99.90
24518;DHT22;12678;51.336;12.406;2023-05-23T12:10:16;17.70;99.90
24518;DHT22;12678;51.336;12.406;2023-05-23T12:12:42;17.70;99.90
24518;DHT22;12678;51.336;12.406;2023-05-23T12:15:09;17.60;99.90
24518;DHT22;12678;51.336;12.406;2023-05-23T12:17:37;17.50;99.90
24518;DHT22;12678;51.336;12.406;2023-05-23T12:20:07;17.50;99.90
24518;DHT22;12678;51.336;12.406;2023-05-23T12:22:33;17.50;99.90
24518;DHT22;12678;51.336;12.406;2023-05-23T12:24:59;17.40;99.90
24518;DHT22;12678;51.336;12.406;2023-05-23T12:27:29;17.40;99.90
24518;DHT22;12678;51.336;12.406;2023-05-23T12:30:14;17.20;99.90
24518;DHT22;12678;51.336;12.406;2023-05-23T12:32:42;17.20;99.90
24518;DHT22;12678;51.336;12.406;2023-05-23T12:35:09;17.10;99.90
24518;DHT22;12678;51.336;12.406;2023-05-23T12:37:39;17.10;99.90
24518;DHT22;12678;51.336;12.406;2023-05-23T12:40:13;17.10;99.90
24518;DHT22;12678;51.336;12.406;2023-05-23T12:42:51;17.10;99.90
24518;DHT22;12678;51.336;12.406;2023-05-23T12:45:33;17.10;99.90
24518;DHT22;12678;51.336;12.406;2023-05-23T12:48:01;17.10;99.90
24518;DHT22;12678;51.336;12.406;2023-05-23T12:50:27;17.10;99.90
24518;DHT22;12678;51.336;12.406;2023-05-23T12:52:52;17.20;99.90
24518;DHT22;12678;51.336;12.406;2023-05-23T12:55:18;17.20;99.90
24518;DHT22;12678;51.336;12.406;2023-05-23T12:57:44;17.20;99.90
24518;DHT22;12678;51.336;12.406;2023-05-23T13:00:10;17.30;99.90
24518;DHT22;12678;51.336;12.406;2023-05-23T13:02:36;17.20;99.90
24518;DHT22;12678;51.336;12.406;2023-05-23T13:05:03;17.20;99.90
24518;DHT22;12678;51.336;12.406;2023-05-23T13:07:28;17.30;99.90
24518;DHT22;12678;51.336;12.406;2023-05-23T13:09:54;17.20;99.90
24518;DHT22;12678;51.336;12.406;2023-05-23T13:12:20;17.20;99.90
24518;DHT22;12678;51.336;12.406;2023-05-23T13:14:45;17.20;99.90
24518;DHT22;12678;51.336;12.406;2023-05-23T13:17:11;17.10;99.90
24518;DHT22;12678;51.336;12.406;2023-05-23T13:19:37;17.00;99.90
24518;DHT22;12678;51.336;12.406;2023-05-23T13:22:04;16.90;99.90
24518;DHT22;12678;51.336;12.406;2023-05-23T13:24:30;16.90;99.90
24518;DHT22;12678;51.336;12.406;2023-05-23T13:26:56;16.90;99.90
24518;DHT22;12678;51.336;12.406;2023-05-23T13:29:21;16.80;99.90
24518;DHT22;12678;51.336;12.406;2023-05-23T13:31:47;16.80;99.90
24518;DHT22;12678;51.336;12.406;2023-05-23T13:34:13;16.80;99.90
24518;DHT22;12678;51.336;12.406;2023-05-23T13:36:38;16.80;99.90
24518;DHT22;12678;51.336;12.406;2023-05-23T13:39:04;16.80;99.90
24518;DHT22;12678;51.336;12.406;2023-05-23T13:41:30;16.80;99.90
24518;DHT22;12678;51.336;12.406;2023-05-23T13:43:56;16.80;99.90
24518;DHT22;12678;51.336;12.406;2023-05-23T13:46:21;16.80;99.90
24518;DHT22;12678;51.336;12.406;2023-05-23T13:48:47;16.70;99.90
24518;DHT22;12678;51.336;12.406;2023-05-23T13:51:13;16.70;99.90
24518;DHT22;12678;51.336;12.406;2023-05-23T13:53:38;16.70;99.90
24518;DHT22;12678;51.336;12.406;2023-05-23T13:56:04;16.80;99.90
24518;DHT22;12678;51.336;12.406;2023-05-23T13:58:30;16.60;99.90
24518;DHT22;12678;51.336;12.406;2023-05-23T14:00:55;16.60;99.90
24518;DHT22;12678;51.336;12.406;2023-05-23T14:03:21;16.50;99.90
24518;DHT22;12678;51.336;12.406;2023-05-23T14:05:47;16.40;99.90
24518;DHT22;12678;51.336;12.406;2023-05-23T14:08:13;16.40;99.90
24518;DHT22;12678;51.336;12.406;2023-05-23T14:10:39;16.30;99.90
24518;DHT22;12678;51.336;12.406;2023-05-23T14:13:07;16.40;99.90
24518;DHT22;12678;51.336;12.406;2023-05-23T14:15:33;16.30;99.90
24518;DHT22;12678;51.336;12.406;2023-05-23T14:17:59;16.30;99.90
24518;DHT22;12678;51.336;12.406;2023-05-23T14:20:25;16.30;99.90
24518;DHT22;12678;51.336;12.406;2023-05-23T14:22:52;16.20;99.90
24518;DHT22;12678;51.336;12.406;2023-05-23T14:25:18;16.10;99.90
24518;DHT22;12678;51.336;12.406;2023-05-23T14:27:44;16.10;99.90
24518;DHT22;12678;51.336;12.406;2023-05-23T14:30:10;16.10;99.90
24518;DHT22;12678;51.336;12.406;2023-05-23T14:32:35;16.20;99.90
24518;DHT22;12678;51.336;12.406;2023-05-23T14:35:05;16.20;99.90
24518;DHT22;12678;51.336;12.406;2023-05-23T14:37:31;16.20;99.90
24518;DHT22;12678;51.336;12.406;2023-05-23T14:39:57;16.20;99.90
24518;DHT22;12678;51.336;12.406;2023-05-23T14:42:22;16.20;99.90
24518;DHT22;12678;51.336;12.406;2023-05-23T14:44:48;16.20;99.90
24518;DHT22;12678;51.336;12.406;2023-05-23T14:47:14;16.20;99.90
24518;DHT22;12678;51.336;12.406;2023-05-23T14:49:40;16.10;99.90
24518;DHT22;12678;51.336;12.406;2023-05-23T14:52:05;16.00;99.90
24518;DHT22;12678;51.336;12.406;2023-05-23T14:54:31;16.00;99.90
24518;DHT22;12678;51.336;12.406;2023-05-23T14:56:56;16.00;99.90
24518;DHT22;12678;51.336;12.406;2023-05-23T14:59:22;16.00;99.90
24518;DHT22;12678;51.336;12.406;2023-05-23T15:01:48;16.00;99.90
24518;DHT22;12678;51.336;12.406;2023-05-23T15:04:14;15.90;99.90
24518;DHT22;12678;51.336;12.406;2023-05-23T15:06:40;15.90;99.90
24518;DHT22;12678;51.336;12.406;2023-05-23T15:09:05;15.80;99.90
24518;DHT22;12678;51.336;12.406;2023-05-23T15:11:31;15.70;99.90
24518;DHT22;12678;51.336;12.406;2023-05-23T15:13:59;15.70;99.90
24518;DHT22;12678;51.336;12.406;2023-05-23T15:16:25;15.60;99.90
24518;DHT22;12678;51.336;12.406;2023-05-23T15:18:51;15.60;99.90
24518;DHT22;12678;51.336;12.406;2023-05-23T15:21:16;15.60;99.90
24518;DHT22;12678;51.336;12.406;2023-05-23T15:23:42;15.60;99.90
24518;DHT22;12678;51.336;12.406;2023-05-23T15:26:08;15.50;99.90
24518;DHT22;12678;51.336;12.406;2023-05-23T15:28:33;15.40;99.90
24518;DHT22;12678;51.336;12.406;2023-05-23T15:30:59;15.40;99.90
24518;DHT22;12678;51.336;12.406;2023-05-23T15:33:25;15.40;99.90